Time;durP1;ratioP1;P1;durP2;ratioP2;P2;SDS_P1;SDS_P2;PMS_P1;PMS_P2;Temp;Humidity;BMP_temperature;BMP_pressure;BME280_temperature;BME280_humidity;BME280_pressure;Samples;Min_cycle;Max_cycle;Signal;HPM_P1;HPM_P2
2021/08/04 00:01:58;;;;;;;1.45;0.80;;;;;;;15.42;83.74;99547.84;5078154;28;20049;-50
2021/08/04 00:04:24;;;;;;;1.65;1.08;;;;;;;15.42;84.08;99542.56;5078203;28;20050;-50
2021/08/04 00:06:49;;;;;;;1.60;0.75;;;;;;;15.47;83.82;99541.47;5078123;28;20052;-51
2021/08/04 00:09:16;;;;;;;2.53;0.93;;;;;;;15.51;83.67;99545.69;5078053;28;20508;-51
2021/08/04 00:11:41;;;;;;;2.90;0.88;;;;;;;15.54;83.41;99540.28;5078278;28;20078;-50
2021/08/04 00:14:07;;;;;;;1.70;1.02;;;;;;;15.55;83.17;99548.09;5078565;28;20053;-50
2021/08/04 00:16:33;;;;;;;4.32;1.70;;;;;;;15.57;83.50;99553.31;5077900;28;20053;-50
2021/08/04 00:18:59;;;;;;;2.00;1.00;;;;;;;15.60;83.20;99550.53;5078184;28;20056;-50
2021/08/04 00:21:25;;;;;;;2.20;0.70;;;;;;;15.61;83.54;99550.44;5078159;28;20158;-51
2021/08/04 00:23:50;;;;;;;1.48;0.93;;;;;;;15.65;83.37;99545.84;5077706;28;20045;-50
2021/08/04 00:26:16;;;;;;;3.03;1.05;;;;;;;15.67;83.61;99543.19;5077079;28;20123;-51
2021/08/04 00:28:42;;;;;;;0.90;0.80;;;;;;;15.70;83.57;99556.25;5060475;28;20056;-50
2021/08/04 00:31:08;;;;;;;1.90;1.23;;;;;;;15.73;83.93;99558.69;5093754;28;20115;-51
2021/08/04 00:33:33;;;;;;;1.50;0.70;;;;;;;15.76;83.64;99543.59;5077560;28;20139;-51
2021/08/04 00:35:59;;;;;;;2.25;0.80;;;;;;;15.76;83.97;99546.22;5093510;28;20048;-50
2021/08/04 00:38:25;;;;;;;2.53;1.08;;;;;;;15.79;83.84;99545.19;5093458;28;20048;-50
2021/08/04 00:40:51;;;;;;;3.00;1.20;;;;;;;15.82;83.94;99545.03;5093691;28;20048;-50
2021/08/04 00:43:17;;;;;;;1.60;1.00;;;;;;;15.84;83.99;99529.97;5093590;28;20450;-50
2021/08/04 00:45:43;;;;;;;1.92;1.30;;;;;;;15.85;84.17;99523.75;5093595;28;20110;-50
2021/08/04 00:48:09;;;;;;;2.78;1.45;;;;;;;15.80;84.33;99500.25;5093266;28;20048;-50
2021/08/04 00:50:36;;;;;;;1.80;1.00;;;;;;;15.77;84.86;99500.41;5077018;28;20327;-50
2021/08/04 00:53:20;;;;;;;1.85;1.23;;;;;;;15.81;85.51;99501.09;5076524;28;20044;-50
2021/08/04 00:55:46;;;;;;;2.88;1.55;;;;;;;15.80;85.42;99497.59;5076610;28;20132;-50
2021/08/04 00:58:12;;;;;;;2.30;1.40;;;;;;;15.81;85.56;99485.25;5076999;28;20045;-50
2021/08/04 01:00:40;;;;;;;3.28;2.25;;;;;;;15.83;85.37;99483.38;5043148;28;20090;-50
2021/08/04 01:03:06;;;;;;;4.30;1.52;;;;;;;15.82;85.76;99479.03;5076080;28;20048;-50
2021/08/04 01:05:36;;;;;;;1.45;1.10;;;;;;;15.82;85.65;99479.88;5110011;28;20049;-50
2021/08/04 01:08:11;;;;;;;2.72;1.77;;;;;;;15.78;85.54;99478.31;5076358;28;20056;-50
2021/08/04 01:10:47;;;;;;;3.08;1.80;;;;;;;15.80;85.23;99484.41;5076858;28;20056;-51
2021/08/04 01:13:15;;;;;;;2.78;1.60;;;;;;;15.77;85.24;99476.63;5075947;28;20135;-50
2021/08/04 01:16:02;;;;;;;3.70;1.60;;;;;;;15.82;85.18;99474.59;5076186;28;20419;-51
2021/08/04 01:18:30;;;;;;;2.70;1.40;;;;;;;15.81;85.12;99472.91;5093009;28;20246;-50
2021/08/04 01:20:56;;;;;;;2.70;1.65;;;;;;;15.82;85.05;99471.09;5076098;28;20044;-50
2021/08/04 01:23:44;;;;;;;2.22;1.30;;;;;;;15.78;84.69;99470.41;5059493;28;20044;-50
2021/08/04 01:26:27;;;;;;;2.50;1.30;;;;;;;15.84;84.97;99475.38;5076091;28;20047;-51
2021/08/04 01:28:53;;;;;;;1.83;1.40;;;;;;;15.86;84.84;99470.03;5060799;28;20068;-50
2021/08/04 01:31:23;;;;;;;2.30;1.55;;;;;;;15.92;84.61;99469.69;5076611;28;20457;-50
2021/08/04 01:33:49;;;;;;;5.72;1.60;;;;;;;15.94;84.22;99473.09;5075447;28;20044;-51
2021/08/04 01:36:15;;;;;;;2.25;1.70;;;;;;;15.96;83.78;99463.34;5075763;28;20049;-50
2021/08/04 01:38:41;;;;;;;2.13;1.75;;;;;;;15.93;83.92;99452.06;5076309;28;20435;-50
2021/08/04 01:41:07;;;;;;;2.55;1.65;;;;;;;15.93;83.89;99452.06;5058994;28;20044;-50
2021/08/04 01:43:33;;;;;;;2.58;1.60;;;;;;;15.93;83.90;99470.56;5076545;28;20055;-50
2021/08/04 01:45:59;;;;;;;3.58;1.73;;;;;;;15.96;84.02;99473.91;5075422;28;20385;-51
2021/08/04 01:48:25;;;;;;;3.10;1.77;;;;;;;16.01;83.86;99471.00;5076198;28;20052;-51
2021/08/04 01:50:52;;;;;;;2.72;1.55;;;;;;;15.99;83.63;99470.22;5092246;28;20064;-51
2021/08/04 01:53:18;;;;;;;2.30;1.40;;;;;;;15.98;83.86;99471.16;5075767;28;20040;-50
2021/08/04 01:55:44;;;;;;;2.30;1.70;;;;;;;15.99;83.93;99471.09;5075522;28;20056;-50
2021/08/04 01:58:09;;;;;;;1.88;1.35;;;;;;;16.00;83.72;99461.38;5076140;28;20060;-51
2021/08/04 02:00:36;;;;;;;4.18;2.65;;;;;;;16.01;83.66;99468.34;5075307;28;20055;-50
2021/08/04 02:03:01;;;;;;;3.40;1.75;;;;;;;15.98;83.35;99464.09;5076308;28;20048;-51
2021/08/04 02:05:27;;;;;;;2.88;1.80;;;;;;;15.97;83.76;99456.25;5092241;28;20106;-51
2021/08/04 02:08:26;;;;;;;4.13;2.00;;;;;;;15.98;83.69;99456.16;5092975;28;20063;-51
2021/08/04 02:11:26;;;;;;;7.05;1.77;;;;;;;15.97;83.91;99450.97;5076001;28;20454;-51
2021/08/04 02:13:59;;;;;;;8.00;2.50;;;;;;;15.94;83.66;99451.13;5092082;28;20048;-50
2021/08/04 02:16:26;;;;;;;4.82;1.75;;;;;;;15.91;83.70;99443.38;5075713;28;20464;-51
2021/08/04 02:19:01;;;;;;;9.73;2.35;;;;;;;15.94;83.60;99446.69;5058369;28;20087;-51
2021/08/04 02:21:27;;;;;;;3.20;1.92;;;;;;;15.89;83.70;99441.66;5075028;28;20052;-51
2021/08/04 02:23:53;;;;;;;2.83;2.03;;;;;;;15.92;83.65;99437.16;5058584;28;20044;-50
2021/08/04 02:26:19;;;;;;;3.35;2.30;;;;;;;15.94;83.53;99437.94;5058353;28;20158;-51
2021/08/04 02:28:46;;;;;;;4.47;2.20;;;;;;;15.94;83.72;99427.38;5058596;28;20110;-51
2021/08/04 02:31:14;;;;;;;2.30;1.60;;;;;;;15.98;83.86;99439.47;5075217;28;20083;-51
2021/08/04 02:33:40;;;;;;;3.38;1.40;;;;;;;15.97;83.73;99437.75;5074816;28;20327;-51
2021/08/04 02:36:06;;;;;;;3.47;1.70;;;;;;;15.99;83.45;99433.25;5058604;28;20044;-51
2021/08/04 02:38:32;;;;;;;4.60;1.73;;;;;;;16.01;83.34;99432.22;5074845;28;20049;-50
2021/08/04 02:41:00;;;;;;;4.20;1.50;;;;;;;16.05;83.25;99438.19;5076248;28;20049;-50
2021/08/04 02:43:26;;;;;;;2.50;1.33;;;;;;;16.06;83.21;99432.00;5075059;28;20056;-50
2021/08/04 02:45:52;;;;;;;2.63;1.75;;;;;;;16.07;83.63;99431.06;5058108;28;20044;-51
2021/08/04 02:48:18;;;;;;;4.20;1.92;;;;;;;16.07;83.20;99428.41;5076255;28;20102;-51
2021/08/04 02:50:48;;;;;;;2.38;1.98;;;;;;;16.06;83.10;99426.72;5079543;28;20443;-51
2021/08/04 02:53:17;;;;;;;2.30;1.35;;;;;;;16.08;83.04;99435.41;5062160;28;20064;-51
2021/08/04 02:55:43;;;;;;;2.67;1.85;;;;;;;16.08;83.04;99443.31;5079500;28;20047;-50
2021/08/04 02:58:12;;;;;;;5.75;2.50;;;;;;;16.06;83.09;99445.22;5078553;28;20162;-51
2021/08/04 03:00:38;;;;;;;3.65;2.25;;;;;;;16.05;83.40;99446.13;5078443;28;20052;-50
2021/08/04 03:03:04;;;;;;;3.45;1.70;;;;;;;16.06;83.75;99446.06;5079297;28;20488;-51
2021/08/04 03:05:30;;;;;;;2.30;1.27;;;;;;;16.06;83.39;99446.06;5095287;28;20339;-50
2021/08/04 03:07:56;;;;;;;2.33;1.70;;;;;;;16.07;83.31;99447.75;5079482;28;20064;-51
2021/08/04 03:10:23;;;;;;;2.33;1.50;;;;;;;16.08;83.21;99451.25;5079435;28;20063;-50
2021/08/04 03:12:48;;;;;;;2.60;1.50;;;;;;;16.06;83.38;99455.78;5079420;28;20049;-50
2021/08/04 03:15:14;;;;;;;3.22;2.03;;;;;;;16.06;83.61;99459.25;5078382;28;20051;-51
2021/08/04 03:17:40;;;;;;;2.58;1.83;;;;;;;16.05;83.60;99456.69;5079323;28;20048;-50
2021/08/04 03:20:06;;;;;;;3.38;2.20;;;;;;;16.04;83.51;99458.47;5078982;28;20037;-51
2021/08/04 03:22:32;;;;;;;8.05;1.75;;;;;;;16.03;83.66;99456.78;5079195;28;20052;-51
2021/08/04 03:24:58;;;;;;;1.70;1.35;;;;;;;16.03;83.70;99453.28;5079183;28;20051;-50
2021/08/04 03:27:24;;;;;;;4.65;1.75;;;;;;;16.01;83.83;99461.28;5079121;28;20059;-51
2021/08/04 03:29:49;;;;;;;4.05;2.00;;;;;;;16.01;83.76;99461.28;5078825;28;20358;-50
2021/08/04 03:32:16;;;;;;;5.97;1.98;;;;;;;16.01;83.61;99469.19;5079050;28;20068;-50
2021/08/04 03:34:42;;;;;;;3.35;1.90;;;;;;;16.01;83.60;99471.00;5078887;28;20055;-51
2021/08/04 03:37:07;;;;;;;3.15;1.80;;;;;;;16.02;83.39;99483.25;5078941;28;20060;-50
2021/08/04 03:39:33;;;;;;;5.50;2.50;;;;;;;16.03;83.36;99474.44;5078607;28;20048;-51
2021/08/04 03:41:59;;;;;;;3.05;2.10;;;;;;;16.03;83.28;99480.56;5079402;28;20052;-51
2021/08/04 03:44:25;;;;;;;3.88;2.45;;;;;;;16.04;83.11;99481.41;5078554;28;20097;-51
2021/08/04 03:46:50;;;;;;;3.20;2.30;;;;;;;16.07;83.13;99479.44;5078802;28;20083;-51
2021/08/04 03:49:17;;;;;;;4.47;3.15;;;;;;;16.09;83.02;99482.88;5079339;28;20117;-51
2021/08/04 03:51:42;;;;;;;4.10;2.92;;;;;;;16.09;83.01;99480.22;5078676;28;20385;-51
2021/08/04 03:54:08;;;;;;;4.97;3.47;;;;;;;16.11;83.04;99483.63;5078577;28;20044;-51
2021/08/04 03:56:34;;;;;;;4.28;2.70;;;;;;;16.12;82.88;99479.22;5078293;28;20062;-51
2021/08/04 03:59:00;;;;;;;4.15;2.80;;;;;;;16.15;83.12;99475.53;5078063;28;20056;-51
2021/08/04 04:01:26;;;;;;;7.30;3.28;;;;;;;16.15;83.15;99479.03;5110938;28;20052;-51
2021/08/04 04:03:52;;;;;;;6.15;2.85;;;;;;;16.14;83.46;99477.34;5078253;28;20427;-51
2021/08/04 04:06:18;;;;;;;6.10;3.13;;;;;;;16.13;83.50;99468.56;5078462;28;20049;-51
2021/08/04 04:08:44;;;;;;;3.45;2.03;;;;;;;16.12;83.77;99468.66;5078114;28;20055;-51
2021/08/04 04:11:10;;;;;;;3.92;2.10;;;;;;;16.13;83.90;99465.91;5078118;28;20351;-50
2021/08/04 04:13:36;;;;;;;3.60;2.58;;;;;;;16.16;84.05;99467.56;5077942;28;20044;-51
2021/08/04 04:16:02;;;;;;;4.63;2.50;;;;;;;16.17;84.00;99477.19;5078247;28;20048;-51
2021/08/04 04:18:27;;;;;;;4.43;2.30;;;;;;;16.17;84.19;99476.31;5077955;28;20066;-51
2021/08/04 04:20:53;;;;;;;3.58;2.65;;;;;;;16.18;84.15;99481.50;5077857;28;20048;-51
2021/08/04 04:23:19;;;;;;;5.75;3.20;;;;;;;16.18;84.45;99494.72;5077871;28;20103;-51
2021/08/04 04:25:45;;;;;;;4.43;3.10;;;;;;;16.17;84.93;99495.66;5077937;28;20047;-51
2021/08/04 04:28:11;;;;;;;3.90;2.70;;;;;;;16.22;84.80;99493.66;5077714;28;20048;-51
2021/08/04 04:30:36;;;;;;;3.90;2.85;;;;;;;16.28;84.76;99501.25;5077965;28;20044;-51
2021/08/04 04:33:02;;;;;;;6.90;3.33;;;;;;;16.30;84.65;99509.94;5077592;28;20070;-50
2021/08/04 04:35:28;;;;;;;7.15;4.38;;;;;;;16.36;84.73;99506.13;5077863;28;20106;-51
2021/08/04 04:37:53;;;;;;;6.60;6.00;;;;;;;16.41;84.64;99505.84;5077604;28;20116;-51
2021/08/04 04:40:20;;;;;;;9.65;7.07;;;;;;;16.45;84.67;99512.72;5077511;28;20431;-51
2021/08/04 04:42:45;;;;;;;9.65;7.65;;;;;;;16.48;84.64;99502.81;5077555;28;20127;-51
2021/08/04 04:45:11;;;;;;;11.23;7.53;;;;;;;16.53;84.20;99508.69;5077655;28;20045;-51
2021/08/04 04:47:37;;;;;;;10.10;7.80;;;;;;;16.58;83.95;99508.47;5077586;28;20052;-51
2021/08/04 04:50:04;;;;;;;8.40;7.57;;;;;;;16.63;83.91;99510.84;5077580;28;20449;-51
2021/08/04 04:52:30;;;;;;;10.43;7.47;;;;;;;16.69;83.77;99515.81;5077508;28;20060;-51
2021/08/04 04:54:56;;;;;;;8.50;7.60;;;;;;;16.74;83.48;99503.19;5077405;28;20056;-51
2021/08/04 04:57:21;;;;;;;9.85;7.47;;;;;;;16.77;83.54;99519.78;5077007;28;20044;-51
2021/08/04 04:59:47;;;;;;;8.75;6.85;;;;;;;16.80;83.46;99524.00;5077353;28;20048;-51
2021/08/04 05:02:13;;;;;;;10.10;6.72;;;;;;;16.83;83.29;99521.19;5077309;28;20442;-51
2021/08/04 05:04:39;;;;;;;7.43;6.38;;;;;;;16.86;83.37;99528.13;5077792;28;20071;-51
2021/08/04 05:07:05;;;;;;;7.47;6.40;;;;;;;16.89;83.15;99530.59;5077241;28;20064;-51
2021/08/04 05:09:30;;;;;;;8.48;6.22;;;;;;;16.92;83.37;99522.50;5076865;28;20404;-51
2021/08/04 05:11:56;;;;;;;6.65;5.90;;;;;;;16.96;82.84;99529.31;5076813;28;20048;-51
2021/08/04 05:14:22;;;;;;;7.07;5.85;;;;;;;16.99;82.72;99526.50;5077041;28;20044;-51
2021/08/04 05:16:48;;;;;;;7.03;5.65;;;;;;;17.02;82.52;99528.97;5077036;28;20056;-51
2021/08/04 05:19:13;;;;;;;9.38;6.53;;;;;;;17.05;82.45;99532.31;5076681;28;20461;-51
2021/08/04 05:21:39;;;;;;;8.02;5.75;;;;;;;17.08;82.65;99528.63;5076918;28;20055;-51
2021/08/04 05:24:06;;;;;;;9.55;6.15;;;;;;;17.12;82.84;99529.31;5076924;28;20404;-51
2021/08/04 05:26:31;;;;;;;7.43;5.60;;;;;;;17.17;82.54;99535.22;5076739;28;20047;-51
2021/08/04 05:28:57;;;;;;;12.95;6.55;;;;;;;17.19;82.68;99535.97;5076818;28;20048;-51
2021/08/04 05:31:23;;;;;;;12.75;6.97;;;;;;;17.23;82.71;99537.50;5076780;28;20354;-51
2021/08/04 05:33:49;;;;;;;11.32;6.07;;;;;;;17.27;82.62;99539.03;5076637;28;20044;-50
2021/08/04 05:36:15;;;;;;;16.02;7.63;;;;;;;17.29;82.88;99543.31;5076408;28;20397;-50
2021/08/04 05:38:40;;;;;;;10.23;6.93;;;;;;;17.32;82.88;99536.13;5076345;28;20393;-50
2021/08/04 05:41:06;;;;;;;11.77;6.57;;;;;;;17.32;82.65;99538.75;5076638;28;20060;-50
2021/08/04 05:43:32;;;;;;;10.02;6.57;;;;;;;17.34;82.57;99545.69;5076581;28;20044;-51
2021/08/04 05:45:58;;;;;;;11.82;6.55;;;;;;;17.33;82.53;99551.09;5076199;28;20063;-50
2021/08/04 05:48:23;;;;;;;9.80;6.55;;;;;;;17.33;82.57;99541.34;5076501;28;20052;-50
2021/08/04 05:50:49;;;;;;;8.15;5.60;;;;;;;17.33;82.55;99545.78;5076236;28;20044;-50
2021/08/04 05:53:15;;;;;;;7.28;5.63;;;;;;;17.29;82.64;99543.31;5076401;28;20044;-50
2021/08/04 05:55:41;;;;;;;7.88;5.18;;;;;;;17.28;82.66;99538.09;5076925;28;20051;-50
2021/08/04 05:58:06;;;;;;;5.30;3.95;;;;;;;17.26;82.54;99540.00;5075927;28;20056;-51
2021/08/04 06:00:32;;;;;;;9.80;4.28;;;;;;;17.25;82.96;99547.06;5076679;28;20105;-50
2021/08/04 06:02:58;;;;;;;6.25;4.35;;;;;;;17.27;83.21;99550.47;5076056;28;20449;-50
2021/08/04 06:05:24;;;;;;;7.35;4.32;;;;;;;17.28;83.30;99546.88;5076330;28;20063;-50
2021/08/04 06:07:50;;;;;;;6.63;4.32;;;;;;;17.30;83.29;99546.81;5076307;28;20052;-50
2021/08/04 06:10:16;;;;;;;6.90;3.85;;;;;;;17.33;83.05;99548.44;5076026;28;20362;-50
2021/08/04 06:12:42;;;;;;;4.78;3.33;;;;;;;17.35;83.23;99554.47;5075977;28;20045;-50
2021/08/04 06:15:08;;;;;;;4.07;3.55;;;;;;;17.40;83.20;99555.06;5076130;28;20063;-50
2021/08/04 06:17:34;;;;;;;5.43;4.15;;;;;;;17.36;82.96;99551.75;5076228;28;20084;-50
2021/08/04 06:19:59;;;;;;;4.82;3.60;;;;;;;17.36;83.26;99553.56;5075838;28;20328;-50
2021/08/04 06:22:25;;;;;;;4.13;2.95;;;;;;;17.39;83.44;99556.03;5075420;28;20044;-51
2021/08/04 06:24:51;;;;;;;4.22;3.22;;;;;;;17.42;83.26;99554.06;5075818;28;20059;-50
2021/08/04 06:27:17;;;;;;;6.18;3.88;;;;;;;17.45;83.29;99561.81;5076154;28;20049;-50
2021/08/04 06:29:42;;;;;;;3.53;3.20;;;;;;;17.50;83.31;99557.09;5075764;28;20058;-51
2021/08/04 06:32:08;;;;;;;5.78;3.97;;;;;;;17.47;83.38;99557.28;5076029;28;20048;-50
2021/08/04 06:34:34;;;;;;;7.70;3.67;;;;;;;17.51;83.36;99560.59;5075948;28;20324;-50
2021/08/04 06:37:00;;;;;;;5.25;3.70;;;;;;;17.53;83.26;99559.56;5075787;28;20051;-50
2021/08/04 06:39:25;;;;;;;6.95;5.20;;;;;;;17.54;83.50;99563.06;5075714;28;20047;-50
2021/08/04 06:41:51;;;;;;;5.10;4.45;;;;;;;17.56;83.25;99557.69;5075715;28;20040;-50
2021/08/04 06:44:17;;;;;;;5.45;4.25;;;;;;;17.58;83.51;99572.56;5091804;28;20044;-50
2021/08/04 06:46:43;;;;;;;7.28;5.32;;;;;;;17.57;83.41;99570.00;5075540;28;20443;-50
2021/08/04 06:49:09;;;;;;;9.77;5.03;;;;;;;17.53;83.31;99572.81;5075655;28;20048;-50
2021/08/04 06:51:35;;;;;;;8.57;4.60;;;;;;;17.55;83.34;99574.50;5075604;28;20036;-50
2021/08/04 06:54:00;;;;;;;5.20;4.50;;;;;;;17.55;83.69;99570.09;5075423;28;20060;-50
2021/08/04 06:56:26;;;;;;;6.90;5.25;;;;;;;17.57;83.54;99575.28;5075804;28;20063;-50
2021/08/04 06:58:52;;;;;;;8.68;4.80;;;;;;;17.61;83.93;99564.41;5075427;28;20375;-50
2021/08/04 07:01:18;;;;;;;5.40;4.03;;;;;;;17.63;83.65;99567.84;5075539;28;20087;-50
2021/08/04 07:03:44;;;;;;;5.55;4.10;;;;;;;17.65;83.77;99563.31;5075493;28;20059;-50
2021/08/04 07:06:09;;;;;;;5.60;3.90;;;;;;;17.70;83.80;99568.34;5075697;28;20048;-50
2021/08/04 07:08:36;;;;;;;7.47;5.32;;;;;;;17.72;83.92;99569.13;5091658;28;20077;-50
2021/08/04 07:11:02;;;;;;;10.48;8.30;;;;;;;17.74;83.92;99573.38;5075407;28;20501;-50
2021/08/04 07:13:28;;;;;;;9.50;8.48;;;;;;;17.74;83.73;99570.72;5108370;28;20048;-50
2021/08/04 07:15:54;;;;;;;9.18;6.28;;;;;;;17.75;83.07;99574.22;5075387;28;20052;-50
2021/08/04 07:18:20;;;;;;;6.32;4.80;;;;;;;17.77;83.42;99566.22;5075617;28;20049;-51
2021/08/04 07:20:46;;;;;;;6.28;4.00;;;;;;;17.82;83.21;99572.09;5075263;28;20477;-51
2021/08/04 07:23:12;;;;;;;5.60;3.70;;;;;;;17.86;82.83;99568.31;5075252;28;20052;-51
2021/08/04 07:25:37;;;;;;;6.00;3.70;;;;;;;17.86;82.48;99569.19;5075534;28;20052;-51
2021/08/04 07:28:03;;;;;;;5.18;3.83;;;;;;;17.88;82.30;99575.25;5075516;28;20443;-51
2021/08/04 07:30:29;;;;;;;6.53;4.78;;;;;;;17.94;82.16;99580.19;5075501;28;20044;-50
2021/08/04 07:32:55;;;;;;;6.18;5.03;;;;;;;17.96;82.44;99580.09;5075238;28;20450;-50
2021/08/04 07:35:21;;;;;;;4.97;3.88;;;;;;;17.98;82.42;99584.34;5077925;28;20040;-51
2021/08/04 07:37:47;;;;;;;6.82;4.07;;;;;;;18.00;82.08;99576.31;5094968;28;20060;-50
2021/08/04 07:40:13;;;;;;;9.45;5.55;;;;;;;18.04;82.08;99579.66;5078620;28;20056;-51
2021/08/04 07:42:39;;;;;;;9.52;4.90;;;;;;;18.04;81.93;99585.81;5111849;28;20052;-51
2021/08/04 07:45:06;;;;;;;21.15;8.32;;;;;;;18.05;81.78;99581.34;5078864;28;20446;-50
2021/08/04 07:47:31;;;;;;;15.70;8.60;;;;;;;18.06;82.17;99588.34;5078580;28;20079;-50
2021/08/04 07:49:57;;;;;;;16.25;7.90;;;;;;;18.09;82.09;99583.72;5077578;28;20127;-50
2021/08/04 07:52:23;;;;;;;12.00;6.65;;;;;;;18.14;82.24;99583.47;5077890;28;20044;-50
2021/08/04 07:54:49;;;;;;;6.68;4.50;;;;;;;18.18;82.05;99585.81;5078288;28;20178;-50
2021/08/04 07:57:15;;;;;;;4.03;2.90;;;;;;;18.25;82.25;99588.09;5078620;28;20060;-50
2021/08/04 07:59:41;;;;;;;4.03;2.90;;;;;;;18.30;82.26;99581.59;5078172;28;20103;-50
2021/08/04 08:02:06;;;;;;;5.22;3.30;;;;;;;18.34;81.87;99592.84;5078848;28;20040;-50
2021/08/04 08:04:32;;;;;;;4.38;3.10;;;;;;;18.41;81.99;99597.69;5078502;28;20045;-51
2021/08/04 08:06:59;;;;;;;7.90;4.60;;;;;;;18.49;81.84;99591.06;5078466;28;20044;-51
2021/08/04 08:09:25;;;;;;;5.90;4.15;;;;;;;18.51;81.49;99587.38;5078419;28;20412;-51
2021/08/04 08:11:52;;;;;;;6.10;3.97;;;;;;;18.53;80.79;99590.78;5060773;28;20052;-51
2021/08/04 08:14:18;;;;;;;7.88;4.50;;;;;;;18.48;80.48;99587.56;5077196;28;20072;-51
2021/08/04 08:16:44;;;;;;;7.90;4.63;;;;;;;18.57;81.14;99581.69;5077478;28;20052;-51
2021/08/04 08:19:10;;;;;;;8.20;5.05;;;;;;;18.64;80.83;99587.47;5078251;28;20052;-51
2021/08/04 08:21:35;;;;;;;7.20;4.45;;;;;;;18.70;80.24;99589.75;5077364;28;20336;-51
2021/08/04 08:24:01;;;;;;;6.97;5.70;;;;;;;18.78;80.01;99591.94;5078133;28;20055;-51
2021/08/04 08:26:27;;;;;;;8.27;6.40;;;;;;;18.85;80.11;99583.53;5078078;28;20052;-51
2021/08/04 08:28:53;;;;;;;9.07;7.20;;;;;;;18.92;79.96;99584.00;5077777;28;20415;-51
2021/08/04 08:31:19;;;;;;;11.38;8.85;;;;;;;18.92;78.67;99589.31;5077973;28;20396;-50
2021/08/04 08:33:45;;;;;;;10.70;7.95;;;;;;;18.99;79.40;99589.75;5077592;28;20428;-51
2021/08/04 08:36:11;;;;;;;11.68;9.25;;;;;;;19.03;79.61;99593.91;5077022;28;20048;-51
2021/08/04 08:38:37;;;;;;;17.08;12.35;;;;;;;19.08;79.51;99583.88;5077011;28;20055;-51
2021/08/04 08:41:05;;;;;;;15.50;13.07;;;;;;;19.12;79.50;99590.69;5077498;28;20052;-51
2021/08/04 08:43:32;;;;;;;17.35;12.05;;;;;;;19.15;78.90;99593.16;5077465;28;20454;-51
2021/08/04 08:45:58;;;;;;;14.95;11.60;;;;;;;19.13;78.34;99585.25;5076196;28;20123;-51
2021/08/04 08:48:24;;;;;;;13.65;10.63;;;;;;;19.13;78.82;99589.72;5077950;28;20041;-51
2021/08/04 08:50:50;;;;;;;11.57;9.82;;;;;;;19.21;79.08;99586.59;5077289;28;20442;-51
2021/08/04 08:53:16;;;;;;;11.20;8.93;;;;;;;19.28;78.96;99586.09;5077534;28;20114;-51
2021/08/04 08:55:42;;;;;;;10.82;8.85;;;;;;;19.35;78.90;99586.56;5076306;28;20040;-51
2021/08/04 08:58:08;;;;;;;10.32;8.45;;;;;;;19.44;78.90;99590.44;5092942;28;20075;-51
2021/08/04 09:00:34;;;;;;;13.38;10.57;;;;;;;19.46;78.25;99592.00;5076655;28;20055;-51
2021/08/04 09:03:00;;;;;;;11.00;9.65;;;;;;;19.52;79.12;99593.41;5077619;28;20051;-50
2021/08/04 09:05:25;;;;;;;9.15;8.20;;;;;;;19.62;79.09;99584.72;5077286;28;20044;-51
2021/08/04 09:07:51;;;;;;;11.73;10.38;;;;;;;19.75;78.39;99587.47;5076377;28;20350;-51
2021/08/04 09:10:25;;;;;;;11.65;10.38;;;;;;;19.87;78.13;99583.16;5076324;28;20082;-51
2021/08/04 09:13:04;;;;;;;14.32;11.93;;;;;;;19.95;76.62;99583.47;5077117;28;20457;-50
2021/08/04 09:15:30;;;;;;;15.38;13.40;;;;;;;19.99;77.20;99589.47;5077062;28;20068;-50
2021/08/04 09:18:03;;;;;;;13.52;12.15;;;;;;;20.02;76.34;99590.09;5077063;28;20198;-50
2021/08/04 09:20:30;;;;;;;13.07;11.32;;;;;;;20.13;76.36;99591.19;5077521;28;20048;-50
2021/08/04 09:23:00;;;;;;;10.35;8.10;;;;;;;20.20;75.10;99585.31;5076951;28;20105;-50
2021/08/04 09:25:26;;;;;;;8.40;6.90;;;;;;;20.24;75.64;99586.81;5076666;28;20040;-51
2021/08/04 09:27:53;;;;;;;8.07;6.45;;;;;;;20.31;75.03;99582.81;5076602;28;20051;-51
2021/08/04 09:30:26;;;;;;;7.07;5.15;;;;;;;20.41;75.20;99587.47;5076557;28;20104;-50
2021/08/04 09:33:12;;;;;;;5.80;5.03;;;;;;;20.50;75.06;99579.69;5076827;28;20044;-50
2021/08/04 09:35:42;;;;;;;6.20;4.03;;;;;;;20.62;75.28;99580.69;5076309;28;20374;-51
2021/08/04 09:38:08;;;;;;;5.15;4.38;;;;;;;20.67;74.48;99583.00;5076708;28;20056;-51
2021/08/04 09:40:34;;;;;;;6.07;4.75;;;;;;;20.70;74.37;99582.78;5075832;28;20440;-51
2021/08/04 09:43:00;;;;;;;4.60;4.10;;;;;;;20.68;74.22;99587.41;5075780;28;20057;-50
2021/08/04 09:45:41;;;;;;;4.55;3.72;;;;;;;20.69;73.34;99587.28;5059118;28;20049;-51
2021/08/04 09:48:09;;;;;;;5.35;4.57;;;;;;;20.57;73.06;99577.47;5076625;28;20048;-51
2021/08/04 09:50:57;;;;;;;4.72;4.30;;;;;;;20.56;73.56;99578.44;5076509;28;20060;-50
2021/08/04 09:53:23;;;;;;;4.85;4.35;;;;;;;20.52;73.96;99584.94;5075680;28;20056;-50
2021/08/04 09:56:14;;;;;;;7.47;4.25;;;;;;;20.52;73.88;99579.63;5076181;28;20496;-51
2021/08/04 09:58:50;;;;;;;5.53;4.80;;;;;;;20.56;74.43;99588.25;5066277;28;20052;-50
2021/08/04 10:01:22;;;;;;;6.57;5.53;;;;;;;20.58;74.54;99575.69;5076367;28;20044;-50
2021/08/04 10:04:17;;;;;;;5.70;4.40;;;;;;;20.51;73.50;99584.09;5075548;28;20061;-51
2021/08/04 10:06:44;;;;;;;4.40;3.53;;;;;;;20.58;74.19;99581.88;5063301;28;20060;-51
2021/08/04 10:09:17;;;;;;;4.70;3.40;;;;;;;20.65;74.10;99588.47;5076057;28;20036;-51
2021/08/04 10:11:47;;;;;;;4.57;3.65;;;;;;;20.68;74.43;99587.41;5076266;28;20110;-51
2021/08/04 10:14:16;;;;;;;4.65;3.17;;;;;;;20.71;73.39;99581.88;5075911;28;20512;-51
2021/08/04 10:16:42;;;;;;;3.25;2.72;;;;;;;20.73;73.28;99579.91;5076219;28;20049;-51
2021/08/04 10:19:08;;;;;;;4.15;2.92;;;;;;;20.85;74.05;99573.75;5075366;28;20516;-50
2021/08/04 10:21:34;;;;;;;4.10;2.70;;;;;;;20.90;73.93;99571.63;5076146;28;20048;-51
2021/08/04 10:24:00;;;;;;;4.72;2.60;;;;;;;21.00;73.57;99567.31;5109012;28;20350;-51
2021/08/04 10:26:26;;;;;;;2.30;2.10;;;;;;;21.01;72.46;99566.34;5075902;28;20040;-51
2021/08/04 10:28:55;;;;;;;2.55;2.20;;;;;;;21.10;72.81;99574.66;5076138;28;20037;-51
2021/08/04 10:31:21;;;;;;;2.80;2.40;;;;;;;21.07;72.73;99573.06;5076119;28;20131;-51
2021/08/04 10:33:47;;;;;;;2.20;1.85;;;;;;;21.11;72.53;99573.69;5075981;28;20048;-51
2021/08/04 10:36:15;;;;;;;6.88;2.45;;;;;;;21.13;71.92;99569.94;5075896;28;20045;-51
2021/08/04 10:38:51;;;;;;;3.55;1.98;;;;;;;21.16;72.25;99564.41;5075153;28;20049;-51
2021/08/04 10:41:21;;;;;;;2.90;2.10;;;;;;;21.21;72.31;99569.38;5075125;28;20117;-51
2021/08/04 10:43:48;;;;;;;2.90;2.08;;;;;;;21.22;73.03;99563.97;5075688;28;20059;-51
2021/08/04 10:46:32;;;;;;;3.28;1.88;;;;;;;21.29;72.58;99560.84;5075950;28;20131;-51
2021/08/04 10:49:04;;;;;;;4.07;2.20;;;;;;;21.33;72.99;99568.50;5075961;28;20057;-51
2021/08/04 10:51:43;;;;;;;2.45;1.65;;;;;;;21.37;72.16;99563.81;5076168;28;20445;-51
2021/08/04 10:54:14;;;;;;;2.08;1.88;;;;;;;21.53;72.66;99563.53;5076157;28;20049;-51
2021/08/04 10:56:43;;;;;;;2.28;1.30;;;;;;;21.69;72.11;99556.94;5074941;28;20048;-51
2021/08/04 10:59:08;;;;;;;3.50;1.55;;;;;;;21.81;72.17;99554.34;5075478;28;20060;-51
2021/08/04 11:01:38;;;;;;;2.28;2.05;;;;;;;21.97;71.65;99554.00;5075744;28;20052;-51
2021/08/04 11:04:04;;;;;;;2.00;1.30;;;;;;;22.05;71.13;99548.94;5075762;28;20045;-51
2021/08/04 11:06:30;;;;;;;2.28;1.38;;;;;;;22.15;70.96;99545.47;5075431;28;20101;-51
2021/08/04 11:09:14;;;;;;;1.80;1.40;;;;;;;22.26;69.75;99554.47;5075986;28;20131;-51
2021/08/04 11:11:57;;;;;;;2.90;1.25;;;;;;;22.30;68.79;99551.47;5078273;28;20470;-51
2021/08/04 11:14:54;;;;;;;1.75;1.30;;;;;;;22.32;67.47;99546.00;5079466;28;20041;-51
2021/08/04 11:17:19;;;;;;;1.23;1.13;;;;;;;22.44;69.36;99550.38;5078033;28;20048;-51
2021/08/04 11:20:05;;;;;;;1.27;1.10;;;;;;;22.56;68.94;99545.91;5079227;28;20056;-50
2021/08/04 11:22:34;;;;;;;1.50;1.15;;;;;;;22.59;68.58;99545.66;5079366;28;20119;-51
2021/08/04 11:25:01;;;;;;;2.13;1.30;;;;;;;22.55;68.21;99546.84;5079224;28;20055;-51
2021/08/04 11:27:28;;;;;;;1.83;1.10;;;;;;;22.59;68.74;99551.00;5111865;28;20057;-51
2021/08/04 11:29:55;;;;;;;1.50;1.30;;;;;;;22.62;68.02;99550.75;5079238;28;20052;-51
2021/08/04 11:32:22;;;;;;;1.85;1.17;;;;;;;22.67;68.07;99542.38;5079110;28;20359;-51
2021/08/04 11:34:48;;;;;;;1.55;1.05;;;;;;;22.77;67.84;99548.69;5078724;28;20063;-51